Time;durP1;ratioP1;P1;durP2;ratioP2;P2;SDS_P1;SDS_P2;PMS_P1;PMS_P2;Temp;Humidity;BMP_temperature;BMP_pressure;BME280_temperature;BME280_humidity;BME280_pressure;Samples;Min_cycle;Max_cycle;Signal;HPM_P1;HPM_P2
2021/09/27 00:00:23;;;;;;;58.37;3.13;;;15.40;19.60;;;;;;5048684;28;20461;-69
2021/09/27 00:02:50;;;;;;;58.57;3.20;;;15.40;19.50;;;;;;5048716;28;20537;-69
2021/09/27 00:05:19;;;;;;;58.77;3.30;;;15.30;19.90;;;;;;5047941;28;20903;-69
2021/09/27 00:07:46;;;;;;;58.90;3.43;;;15.30;20.70;;;;;;5048073;28;20562;-70
2021/09/27 00:10:21;;;;;;;58.60;3.33;;;15.30;19.90;;;;;;5048136;28;20448;-69
2021/09/27 00:12:49;;;;;;;59.20;3.77;;;15.20;18.70;;;;;;5047995;28;20560;-69
2021/09/27 00:15:24;;;;;;;58.20;2.73;;;15.20;18.70;;;;;;5048208;28;20534;-70
2021/09/27 00:17:51;;;;;;;58.57;3.00;;;15.20;19.70;;;;;;5050969;28;20473;-70
2021/09/27 00:20:19;;;;;;;59.40;3.67;;;15.20;20.70;;;;;;5051765;27;20455;-70
2021/09/27 00:22:48;;;;;;;59.40;4.70;;;15.10;20.10;;;;;;5051381;28;20537;-70
2021/09/27 00:25:16;;;;;;;58.27;2.80;;;15.10;20.70;;;;;;5051589;28;20482;-70
2021/09/27 00:27:43;;;;;;;59.00;3.23;;;15.10;19.80;;;;;;5051317;28;20476;-70
2021/09/27 00:30:12;;;;;;;59.20;3.50;;;15.10;20.40;;;;;;5051436;28;20497;-70
2021/09/27 00:32:41;;;;;;;58.60;3.03;;;15.10;22.00;;;;;;5051047;28;20534;-69
2021/09/27 00:35:09;;;;;;;58.07;2.80;;;15.10;23.60;;;;;;5050920;28;20447;-69
2021/09/27 00:37:37;;;;;;;58.57;2.83;;;15.10;22.00;;;;;;5050777;28;20471;-69
2021/09/27 00:40:05;;;;;;;58.50;3.10;;;15.10;21.00;;;;;;5050926;28;20453;-69
2021/09/27 00:42:32;;;;;;;59.60;3.73;;;15.00;21.10;;;;;;5050947;28;20447;-69
2021/09/27 00:44:59;;;;;;;58.50;2.70;;;15.00;20.50;;;;;;5050939;28;20673;-68
2021/09/27 00:47:26;;;;;;;59.40;3.17;;;15.00;20.30;;;;;;5050693;28;20466;-69
2021/09/27 00:49:55;;;;;;;58.70;3.40;;;14.90;19.70;;;;;;5050709;28;20482;-69
2021/09/27 00:52:22;;;;;;;58.67;3.30;;;14.90;21.20;;;;;;5123280;27;20456;-68
2021/09/27 00:54:50;;;;;;;58.67;4.10;;;14.90;19.60;;;;;;5155917;27;20445;-70
2021/09/27 00:57:21;;;;;;;58.40;2.70;;;14.80;20.10;;;;;;5155708;27;20504;-70
2021/09/27 00:59:50;;;;;;;58.47;2.60;;;14.80;21.00;;;;;;5156320;27;20451;-70
2021/09/27 01:02:18;;;;;;;58.70;3.10;;;14.80;21.10;;;;;;5155835;27;20475;-70
2021/09/27 01:04:45;;;;;;;58.57;3.00;;;14.80;21.50;;;;;;5155667;27;20547;-69
2021/09/27 01:07:21;;;;;;;59.00;2.80;;;14.80;22.50;;;;;;5155535;27;20544;-69
2021/09/27 01:10:07;;;;;;;58.23;2.90;;;14.80;23.00;;;;;;5156064;27;20455;-69
2021/09/27 01:13:14;;;;;;;58.50;2.70;;;14.80;24.00;;;;;;5155814;27;20449;-70
2021/09/27 01:15:50;;;;;;;58.37;3.00;;;14.70;24.00;;;;;;5118228;27;20530;-69
2021/09/27 01:18:26;;;;;;;58.70;3.27;;;14.70;23.30;;;;;;5155661;27;20461;-69
2021/09/27 01:21:22;;;;;;;58.33;2.70;;;14.70;23.10;;;;;;5155761;27;20466;-69
2021/09/27 01:24:25;;;;;;;58.30;2.77;;;14.60;21.40;;;;;;5084440;27;20871;-69
2021/09/27 01:27:10;;;;;;;58.23;2.70;;;14.60;19.70;;;;;;5049329;28;20481;-69
2021/09/27 01:30:10;;;;;;;58.70;3.20;;;14.50;19.80;;;;;;5050100;28;20562;-69
2021/09/27 01:32:41;;;;;;;58.83;3.50;;;14.50;22.50;;;;;;5050516;28;20442;-69
2021/09/27 01:35:29;;;;;;;58.30;2.77;;;14.50;23.80;;;;;;5050215;28;20934;-70
2021/09/27 01:38:18;;;;;;;58.50;3.50;;;14.50;24.90;;;;;;5050046;28;20852;-70
2021/09/27 01:40:55;;;;;;;58.47;3.20;;;14.50;24.20;;;;;;5050221;28;20971;-70
2021/09/27 01:43:27;;;;;;;58.17;2.77;;;14.40;23.70;;;;;;5050173;28;20451;-70
2021/09/27 01:46:03;;;;;;;58.60;3.77;;;14.40;23.40;;;;;;5050226;28;20466;-70
2021/09/27 01:48:37;;;;;;;58.57;3.20;;;14.40;24.60;;;;;;5049960;28;20469;-70
2021/09/27 01:51:10;;;;;;;58.07;2.70;;;14.50;25.70;;;;;;5050134;28;20553;-69
2021/09/27 01:53:43;;;;;;;58.67;2.90;;;14.40;26.10;;;;;;5050043;28;20483;-69
2021/09/27 01:56:14;;;;;;;58.43;3.20;;;14.40;25.10;;;;;;5046401;27;20698;-69
2021/09/27 01:58:51;;;;;;;58.63;3.30;;;14.40;24.70;;;;;;5049851;28;20470;-69
2021/09/27 02:01:30;;;;;;;58.50;2.70;;;14.40;25.00;;;;;;5050245;28;20452;-69
2021/09/27 02:04:05;;;;;;;58.37;2.90;;;14.40;24.40;;;;;;5049803;28;20485;-70
2021/09/27 02:06:38;;;;;;;58.50;3.77;;;14.40;25.90;;;;;;5049395;28;20489;-69
2021/09/27 02:09:10;;;;;;;58.90;3.00;;;14.40;27.00;;;;;;5049764;28;20482;-69
2021/09/27 02:11:39;;;;;;;58.17;2.70;;;14.40;26.30;;;;;;5049629;28;20459;-69
2021/09/27 02:14:13;;;;;;;58.17;2.70;;;14.30;25.80;;;;;;5049704;28;20481;-69
2021/09/27 02:16:46;;;;;;;58.00;2.73;;;14.30;26.90;;;;;;5049384;28;20489;-69
2021/09/27 02:19:23;;;;;;;58.20;2.80;;;14.40;27.70;;;;;;5049762;28;20541;-69
2021/09/27 02:21:55;;;;;;;58.17;2.80;;;14.40;27.60;;;;;;5049595;28;20451;-69
2021/09/27 02:24:30;;;;;;;58.90;3.00;;;14.40;28.40;;;;;;5049645;28;20461;-69
2021/09/27 02:26:57;;;;;;;58.43;3.10;;;14.40;28.80;;;;;;5047996;27;20578;-69
2021/09/27 02:29:24;;;;;;;59.53;3.60;;;14.40;28.10;;;;;;5049274;28;20456;-70
2021/09/27 02:32:08;;;;;;;58.43;2.90;;;14.40;26.50;;;;;;5049855;28;20817;-70
2021/09/27 02:34:45;;;;;;;58.23;2.90;;;14.40;27.80;;;;;;5049492;28;20541;-69
2021/09/27 02:37:19;;;;;;;58.50;2.80;;;14.40;29.50;;;;;;5048893;28;20462;-69
2021/09/27 02:39:51;;;;;;;59.00;3.03;;;14.50;30.20;;;;;;5048898;28;20451;-70
2021/09/27 02:42:24;;;;;;;58.60;3.33;;;14.50;30.30;;;;;;5049582;28;20450;-69
2021/09/27 02:44:51;;;;;;;59.40;2.80;;;14.50;29.20;;;;;;5049273;28;20453;-69
2021/09/27 02:47:25;;;;;;;58.07;2.60;;;14.50;28.40;;;;;;5048611;28;20549;-69
2021/09/27 02:49:57;;;;;;;67.57;3.80;;;14.50;28.90;;;;;;5049178;28;20891;-69
2021/09/27 02:52:24;;;;;;;58.20;2.80;;;14.50;28.80;;;;;;5049653;28;20458;-69
2021/09/27 02:54:55;;;;;;;58.20;2.90;;;14.50;28.90;;;;;;5049212;28;20462;-69
2021/09/27 02:57:48;;;;;;;58.27;2.70;;;14.50;29.00;;;;;;5048876;28;20476;-69
2021/09/27 03:00:19;;;;;;;58.57;3.20;;;14.50;29.40;;;;;;5051116;27;20459;-70
2021/09/27 03:02:58;;;;;;;58.10;2.60;;;14.50;29.60;;;;;;5048891;28;20485;-70
2021/09/27 03:05:38;;;;;;;58.20;3.10;;;14.50;29.30;;;;;;5048865;28;20456;-70
2021/09/27 03:08:22;;;;;;;58.47;3.00;;;14.50;30.50;;;;;;5048879;28;20487;-69
2021/09/27 03:11:03;;;;;;;58.67;3.00;;;14.60;32.20;;;;;;5049040;28;20456;-69
2021/09/27 03:13:41;;;;;;;58.37;2.70;;;14.60;32.60;;;;;;5049090;28;20456;-70
2021/09/27 03:16:20;;;;;;;58.10;2.50;;;14.60;32.50;;;;;;5048754;28;20478;-69
2021/09/27 03:19:01;;;;;;;58.67;2.80;;;14.60;33.80;;;;;;5049135;28;20470;-69
2021/09/27 03:21:44;;;;;;;58.57;3.20;;;14.70;34.30;;;;;;5048936;28;20452;-69
2021/09/27 03:24:25;;;;;;;58.27;2.80;;;14.70;37.10;;;;;;5048802;28;20893;-69
2021/09/27 03:27:00;;;;;;;60.00;3.00;;;14.70;36.30;;;;;;5048206;28;20496;-69
2021/09/27 03:29:35;;;;;;;57.97;2.70;;;14.70;36.10;;;;;;5048462;28;20545;-69
2021/09/27 03:32:12;;;;;;;58.23;3.37;;;14.70;37.40;;;;;;5115211;27;20449;-69
2021/09/27 03:34:49;;;;;;;58.27;2.67;;;14.80;38.10;;;;;;5153493;27;20449;-68
2021/09/27 03:37:38;;;;;;;59.53;4.87;;;14.80;38.60;;;;;;5153008;27;20916;-68
2021/09/27 03:40:25;;;;;;;58.40;3.37;;;14.80;38.80;;;;;;5153380;27;20902;-68
2021/09/27 03:43:00;;;;;;;58.80;3.57;;;14.80;39.30;;;;;;5153601;27;20445;-69
2021/09/27 03:45:31;;;;;;;58.33;2.83;;;14.90;39.80;;;;;;5153007;27;20877;-68
2021/09/27 03:48:03;;;;;;;58.13;2.70;;;14.90;40.10;;;;;;5153327;27;20460;-70
2021/09/27 03:50:35;;;;;;;58.27;3.20;;;14.90;40.10;;;;;;5153638;27;20533;-70
2021/09/27 03:53:09;;;;;;;58.20;2.90;;;14.90;39.60;;;;;;5157530;27;20439;-69
2021/09/27 03:55:41;;;;;;;58.13;2.60;;;14.90;41.10;;;;;;5156952;27;20538;-69
2021/09/27 03:58:12;;;;;;;59.43;3.47;;;14.90;43.90;;;;;;5157220;27;20560;-69
2021/09/27 04:00:47;;;;;;;58.03;2.67;;;14.80;44.60;;;;;;5157384;27;20872;-69
2021/09/27 04:03:34;;;;;;;58.07;2.60;;;14.80;46.50;;;;;;5145941;27;20531;-69
2021/09/27 04:06:08;;;;;;;57.93;2.50;;;14.80;49.20;;;;;;5051483;28;20489;-69
2021/09/27 04:08:42;;;;;;;58.17;3.13;;;14.80;50.60;;;;;;5051547;28;20477;-69
2021/09/27 04:11:18;;;;;;;57.97;2.90;;;14.80;52.30;;;;;;5051472;28;20450;-69
2021/09/27 04:13:50;;;;;;;58.23;2.80;;;14.80;53.00;;;;;;5051513;28;20457;-69
2021/09/27 04:16:32;;;;;;;58.17;2.80;;;14.90;54.50;;;;;;5051214;28;20538;-69
2021/09/27 04:19:07;;;;;;;58.70;3.47;;;14.90;56.10;;;;;;5051355;28;20552;-70
2021/09/27 04:21:42;;;;;;;57.97;2.60;;;14.90;55.90;;;;;;5051393;28;20536;-69
2021/09/27 04:24:24;;;;;;;58.10;2.60;;;14.90;56.50;;;;;;5051462;28;20537;-69
2021/09/27 04:27:11;;;;;;;58.03;2.60;;;14.90;56.30;;;;;;5051108;28;20578;-70
2021/09/27 04:30:17;;;;;;;58.20;3.10;;;14.90;56.50;;;;;;5051249;28;20473;-70
2021/09/27 04:33:03;;;;;;;58.07;2.80;;;14.90;56.00;;;;;;5052823;28;20490;-69
2021/09/27 04:35:38;;;;;;;58.27;2.93;;;14.90;55.20;;;;;;5051056;27;20465;-68
2021/09/27 04:38:10;;;;;;;58.17;2.70;;;14.90;54.80;;;;;;5051154;28;20480;-69
2021/09/27 04:41:01;;;;;;;58.37;2.90;;;14.90;54.50;;;;;;5050836;28;20542;-69
2021/09/27 04:43:36;;;;;;;58.23;2.90;;;14.80;50.90;;;;;;5051544;28;20446;-69
2021/09/27 04:46:11;;;;;;;58.60;3.33;;;14.80;49.40;;;;;;5050649;28;20488;-69
2021/09/27 04:49:01;;;;;;;57.93;2.60;;;14.80;47.50;;;;;;5050986;28;20548;-69
2021/09/27 04:51:47;;;;;;;58.27;2.80;;;14.70;44.60;;;;;;5051323;28;20824;-69
2021/09/27 04:54:52;;;;;;;57.93;2.60;;;14.70;42.80;;;;;;5051081;27;20453;-69
2021/09/27 04:57:26;;;;;;;59.47;3.37;;;14.60;40.70;;;;;;5050397;28;20501;-69
2021/09/27 05:00:17;;;;;;;58.30;2.70;;;14.50;38.80;;;;;;5051520;27;20875;-70
2021/09/27 05:03:22;;;;;;;58.07;2.40;;;14.50;39.50;;;;;;5052090;28;20460;-70
2021/09/27 05:06:19;;;;;;;58.20;2.50;;;14.40;40.20;;;;;;5053557;28;20491;-70
2021/09/27 05:09:00;;;;;;;58.60;3.33;;;14.40;99.90;;;;;;5118334;27;20561;-69
2021/09/27 05:12:13;;;;;;;58.60;3.20;;;14.40;99.90;;;;;;5156125;27;20990;-69
2021/09/27 05:15:00;;;;;;;58.80;3.00;;;14.30;96.20;;;;;;5156236;27;20468;-70
2021/09/27 05:17:57;;;;;;;58.07;2.60;;;14.30;69.60;;;;;;5155687;27;20488;-69
2021/09/27 05:20:47;;;;;;;58.17;2.70;;;14.20;54.30;;;;;;5155997;27;20464;-69
2021/09/27 05:23:22;;;;;;;58.37;2.93;;;14.20;43.70;;;;;;5155981;27;20815;-70
2021/09/27 05:26:10;;;;;;;58.47;3.10;;;14.20;42.10;;;;;;5155693;27;20531;-69
2021/09/27 05:29:00;;;;;;;58.90;3.00;;;14.10;41.30;;;;;;5155648;27;20548;-70
2021/09/27 05:31:48;;;;;;;58.57;2.83;;;14.10;41.00;;;;;;5155503;27;20540;-70
2021/09/27 05:34:26;;;;;;;58.03;2.80;;;14.10;41.20;;;;;;5155894;27;20608;-70
2021/09/27 05:37:14;;;;;;;58.77;3.57;;;14.10;42.40;;;;;;5154837;27;20436;-71
2021/09/27 05:40:02;;;;;;;58.37;2.60;;;14.10;43.50;;;;;;5149861;27;20441;-70
2021/09/27 05:42:53;;;;;;;58.10;2.60;;;14.10;45.30;;;;;;5030316;28;20542;-71
2021/09/27 05:45:28;;;;;;;59.13;3.30;;;14.10;44.50;;;;;;5029847;28;20489;-71
2021/09/27 05:48:05;;;;;;;58.50;2.97;;;14.00;45.50;;;;;;5030593;28;20498;-71
2021/09/27 05:50:41;;;;;;;58.90;3.47;;;14.10;43.70;;;;;;5030252;28;20545;-69
2021/09/27 05:53:15;;;;;;;58.33;3.30;;;14.00;43.70;;;;;;5030380;28;20445;-69
2021/09/27 05:55:47;;;;;;;58.50;2.80;;;14.00;44.60;;;;;;5030036;28;20719;-69
2021/09/27 05:58:20;;;;;;;58.40;3.47;;;14.00;48.20;;;;;;5030243;28;20491;-69
2021/09/27 06:00:56;;;;;;;59.23;3.43;;;14.00;48.60;;;;;;5029958;28;21001;-70
2021/09/27 06:03:42;;;;;;;58.47;3.00;;;14.10;42.40;;;;;;5030420;28;20432;-70
2021/09/27 06:06:24;;;;;;;57.87;2.40;;;14.10;42.60;;;;;;5029264;28;20469;-70
2021/09/27 06:09:00;;;;;;;58.63;3.17;;;14.10;43.20;;;;;;5030219;28;20564;-70
2021/09/27 06:11:33;;;;;;;58.37;2.90;;;14.10;43.20;;;;;;5029180;27;20533;-69
2021/09/27 06:14:01;;;;;;;58.37;3.17;;;14.10;44.90;;;;;;5049211;28;20814;-70
2021/09/27 06:16:41;;;;;;;58.20;2.87;;;14.20;45.60;;;;;;5049063;28;20886;-70
2021/09/27 06:19:20;;;;;;;58.07;2.50;;;14.20;46.00;;;;;;5049793;28;20446;-69
2021/09/27 06:22:02;;;;;;;58.17;2.67;;;14.30;46.80;;;;;;5049888;28;20491;-70
2021/09/27 06:24:41;;;;;;;58.17;2.87;;;14.30;48.20;;;;;;5049652;28;20541;-70
2021/09/27 06:27:12;;;;;;;58.13;2.70;;;14.40;49.60;;;;;;5048950;28;21006;-69
2021/09/27 06:29:51;;;;;;;58.60;3.00;;;14.40;51.10;;;;;;5049330;28;20462;-69
2021/09/27 06:32:27;;;;;;;58.13;2.77;;;14.40;51.20;;;;;;5049345;28;20459;-68
2021/09/27 06:35:01;;;;;;;57.93;2.50;;;14.50;53.90;;;;;;5049557;28;20449;-69
2021/09/27 06:37:30;;;;;;;59.27;3.20;;;14.50;54.20;;;;;;5048843;28;20476;-69
2021/09/27 06:40:02;;;;;;;58.00;2.57;;;14.60;54.80;;;;;;5049398;28;20457;-69
2021/09/27 06:42:29;;;;;;;58.47;2.80;;;14.60;56.50;;;;;;5049220;28;20546;-68
2021/09/27 06:44:55;;;;;;;57.77;2.47;;;14.60;57.80;;;;;;5049732;27;20458;-70
2021/09/27 06:47:23;;;;;;;60.50;2.87;;;14.60;59.00;;;;;;5049011;28;20486;-70
2021/09/27 06:49:49;;;;;;;58.17;2.80;;;14.70;60.50;;;;;;5049009;28;20447;-70
2021/09/27 06:52:18;;;;;;;58.70;3.73;;;14.80;61.00;;;;;;5049487;28;20553;-70
2021/09/27 06:54:45;;;;;;;58.17;2.73;;;14.80;62.80;;;;;;5049231;28;20477;-70
2021/09/27 06:57:12;;;;;;;58.07;3.20;;;14.90;62.70;;;;;;5048885;28;20470;-70
2021/09/27 06:59:40;;;;;;;58.47;2.97;;;14.90;62.50;;;;;;5049091;28;20541;-69
2021/09/27 07:02:07;;;;;;;58.10;2.70;;;15.00;63.00;;;;;;5049719;28;20670;-70
2021/09/27 07:04:34;;;;;;;58.10;2.70;;;15.00;63.40;;;;;;5048735;28;20533;-69
2021/09/27 07:07:02;;;;;;;58.40;3.30;;;15.10;63.50;;;;;;5048557;28;20568;-69
2021/09/27 07:09:30;;;;;;;58.73;3.80;;;15.20;64.40;;;;;;5048875;27;20447;-69
2021/09/27 07:11:57;;;;;;;58.50;3.60;;;15.30;64.40;;;;;;5048763;28;20544;-69
2021/09/27 07:14:23;;;;;;;58.87;3.80;;;15.30;64.00;;;;;;5048750;28;20886;-69
2021/09/27 07:16:50;;;;;;;57.93;2.63;;;15.40;64.20;;;;;;5027765;27;20551;-69
2021/09/27 07:19:17;;;;;;;58.60;3.37;;;15.40;63.80;;;;;;5029016;28;20486;-68
2021/09/27 07:21:44;;;;;;;58.20;2.80;;;15.50;63.90;;;;;;5028996;28;20817;-69
2021/09/27 07:24:13;;;;;;;59.00;3.27;;;15.50;63.60;;;;;;5029097;28;20494;-69
2021/09/27 07:26:42;;;;;;;58.27;3.10;;;15.50;63.50;;;;;;5030749;28;20462;-69
2021/09/27 07:29:09;;;;;;;58.60;4.03;;;15.60;63.40;;;;;;5032369;28;20484;-69
2021/09/27 07:31:37;;;;;;;58.20;3.20;;;15.60;62.70;;;;;;5032300;28;20656;-68
2021/09/27 07:34:06;;;;;;;58.60;2.77;;;15.70;62.40;;;;;;5032734;28;20885;-68
2021/09/27 07:36:35;;;;;;;58.23;2.77;;;15.70;61.50;;;;;;5031982;28;20483;-69
2021/09/27 07:39:02;;;;;;;58.17;3.30;;;15.80;60.80;;;;;;5032381;28;20507;-69
2021/09/27 07:41:30;;;;;;;58.03;2.80;;;15.90;60.30;;;;;;5032426;28;20448;-69
2021/09/27 07:43:58;;;;;;;58.60;3.73;;;16.00;58.00;;;;;;5031996;28;20452;-70
2021/09/27 07:46:26;;;;;;;58.17;3.53;;;16.10;56.60;;;;;;5035124;27;20464;-71
2021/09/27 07:48:52;;;;;;;58.50;3.33;;;16.10;55.90;;;;;;5052252;28;20522;-69
2021/09/27 07:51:21;;;;;;;58.07;2.70;;;16.20;51.70;;;;;;5051834;28;20491;-69
2021/09/27 07:53:48;;;;;;;58.40;3.03;;;16.30;47.50;;;;;;5051925;28;20453;-69
2021/09/27 07:56:15;;;;;;;57.97;2.80;;;16.40;40.90;;;;;;5051502;28;20969;-69
2021/09/27 07:58:42;;;;;;;58.03;2.70;;;16.40;33.90;;;;;;5051788;28;20559;-70
2021/09/27 08:01:10;;;;;;;58.27;2.90;;;16.50;29.50;;;;;;5051997;28;20539;-69
2021/09/27 08:03:37;;;;;;;58.50;3.20;;;16.60;25.20;;;;;;5051802;28;20484;-69
2021/09/27 08:06:04;;;;;;;59.00;3.77;;;16.60;19.90;;;;;;5051691;28;20448;-69
2021/09/27 08:08:31;;;;;;;58.80;2.77;;;16.70;15.80;;;;;;5051620;28;20492;-69
2021/09/27 08:10:57;;;;;;;58.90;3.17;;;16.80;10.30;;;;;;5051488;28;20546;-69
2021/09/27 08:13:24;;;;;;;58.17;3.30;;;16.80;1.00;;;;;;5051649;28;20493;-69
2021/09/27 08:15:53;;;;;;;58.37;3.00;;;16.90;1.00;;;;;;5051503;28;20451;-70
2021/09/27 08:18:22;;;;;;;58.27;3.23;;;17.00;1.00;;;;;;5050812;27;20970;-70
2021/09/27 08:20:53;;;;;;;58.17;2.83;;;17.10;1.00;;;;;;5051531;28;20530;-69
2021/09/27 08:23:21;;;;;;;58.40;2.90;;;17.20;1.00;;;;;;5051224;28;20538;-69
2021/09/27 08:25:49;;;;;;;58.80;4.30;;;17.30;1.00;;;;;;5051287;27;20455;-69
2021/09/27 08:28:19;;;;;;;58.27;3.10;;;17.40;1.00;;;;;;5051403;28;20519;-69
2021/09/27 08:30:49;;;;;;;59.60;4.00;;;17.50;1.00;;;;;;5051158;28;20546;-69
2021/09/27 08:33:19;;;;;;;59.93;2.90;;;17.70;1.00;;;;;;5051242;28;20538;-69
2021/09/27 08:35:48;;;;;;;58.30;3.00;;;17.70;1.00;;;;;;5051229;28;20677;-69
2021/09/27 08:38:15;;;;;;;58.60;3.40;;;17.90;1.00;;;;;;5050725;28;20543;-70
2021/09/27 08:41:06;;;;;;;58.20;2.70;;;18.00;1.00;;;;;;5051455;28;20456;-70
2021/09/27 08:43:50;;;;;;;58.17;2.80;;;18.10;1.00;;;;;;5051466;28;20449;-71
2021/09/27 08:46:23;;;;;;;58.60;3.37;;;18.20;1.00;;;;;;5051045;28;20481;-70
2021/09/27 08:48:57;;;;;;;57.90;2.90;;;18.40;1.00;;;;;;5051220;28;20573;-71
2021/09/27 08:51:27;;;;;;;58.40;3.47;;;18.50;1.00;;;;;;5050156;27;20453;-69
2021/09/27 08:53:54;;;;;;;59.60;3.63;;;18.60;1.00;;;;;;5051149;28;20553;-70
2021/09/27 08:56:29;;;;;;;59.03;3.80;;;18.70;1.00;;;;;;5050875;27;20459;-70
2021/09/27 08:59:03;;;;;;;57.97;2.30;;;18.80;1.00;;;;;;5050721;28;20496;-71
2021/09/27 09:01:42;;;;;;;58.40;2.93;;;18.90;1.00;;;;;;5051133;27;20529;-71
2021/09/27 09:04:18;;;;;;;58.00;2.53;;;19.00;1.00;;;;;;5051076;28;20453;-71
2021/09/27 09:06:50;;;;;;;58.53;3.37;;;19.10;1.00;;;;;;5050520;27;20542;-69
2021/09/27 09:09:22;;;;;;;58.60;3.00;;;19.20;1.00;;;;;;5050508;28;20484;-70
2021/09/27 09:11:54;;;;;;;58.47;3.30;;;19.30;1.00;;;;;;5050819;28;20448;-70
2021/09/27 09:14:33;;;;;;;58.37;2.80;;;19.50;1.00;;;;;;5050930;28;20441;-69
2021/09/27 09:17:02;;;;;;;58.90;2.90;;;19.70;1.00;;;;;;5051443;27;20536;-69
2021/09/27 09:19:33;;;;;;;58.10;2.60;;;19.90;1.00;;;;;;5050348;28;20547;-69
2021/09/27 09:22:07;;;;;;;58.70;2.97;;;20.10;1.00;;;;;;5051744;27;20446;-69
2021/09/27 09:24:37;;;;;;;58.50;2.60;;;20.30;1.00;;;;;;5050794;28;20466;-69
2021/09/27 09:27:07;;;;;;;58.37;3.73;;;20.50;1.00;;;;;;5050108;28;20472;-69
2021/09/27 09:29:38;;;;;;;58.00;2.80;;;20.70;1.00;;;;;;5050533;28;20499;-68
2021/09/27 09:32:14;;;;;;;58.40;2.70;;;20.80;1.00;;;;;;5050508;28;20539;-68
2021/09/27 09:34:41;;;;;;;58.07;2.40;;;20.90;1.00;;;;;;5050499;28;20564;-68
2021/09/27 09:37:21;;;;;;;57.97;3.00;;;21.30;1.00;;;;;;5050021;28;20486;-68
2021/09/27 09:39:59;;;;;;;58.40;2.67;;;22.10;1.00;;;;;;5050432;28;20468;-69
2021/09/27 09:42:31;;;;;;;58.50;2.90;;;22.70;1.00;;;;;;5050243;28;20523;-69
2021/09/27 09:44:57;;;;;;;58.20;2.87;;;23.20;1.00;;;;;;5049984;28;20483;-69
2021/09/27 09:47:27;;;;;;;57.70;2.33;;;23.60;1.00;;;;;;5049833;28;20464;-69
2021/09/27 09:49:59;;;;;;;58.20;2.63;;;24.30;1.00;;;;;;5049371;28;20569;-69
2021/09/27 09:52:33;;;;;;;58.77;2.80;;;25.40;1.00;;;;;;5051038;27;20557;-69
2021/09/27 09:55:02;;;;;;;58.20;2.37;;;26.40;1.00;;;;;;5030047;28;20448;-69
2021/09/27 09:57:33;;;;;;;58.50;2.30;;;27.30;1.00;;;;;;5029772;28;20513;-69
2021/09/27 10:00:07;;;;;;;57.87;2.70;;;28.10;1.00;;;;;;5030356;28;20448;-69
2021/09/27 10:02:36;;;;;;;58.00;2.67;;;28.50;1.00;;;;;;5030334;28;20531;-69
2021/09/27 10:05:08;;;;;;;58.00;2.50;;;29.00;1.00;;;;;;5030040;28;20837;-69
2021/09/27 10:07:47;;;;;;;57.77;2.30;;;29.20;1.00;;;;;;5029519;28;20472;-69
2021/09/27 10:10:31;;;;;;;57.67;2.30;;;29.40;1.00;;;;;;5030226;28;20820;-69
2021/09/27 10:12:59;;;;;;;57.67;2.50;;;30.00;1.00;;;;;;5030357;28;20491;-69
2021/09/27 10:15:43;;;;;;;57.57;2.33;;;30.10;1.00;;;;;;5029729;28;20459;-69
2021/09/27 10:18:26;;;;;;;59.27;2.27;;;30.40;1.00;;;;;;5029572;28;20548;-69
2021/09/27 10:21:28;;;;;;;57.50;2.00;;;30.80;1.00;;;;;;5029946;28;20862;-69
2021/09/27 10:24:12;;;;;;;57.83;2.23;;;31.30;1.00;;;;;;5029507;28;20441;-69
2021/09/27 10:26:40;;;;;;;57.37;2.10;;;32.00;1.00;;;;;;5029375;28;20453;-69
2021/09/27 10:29:10;;;;;;;57.27;2.13;;;32.60;1.00;;;;;;5029438;28;21022;-69
2021/09/27 10:31:39;;;;;;;57.80;2.47;;;33.20;1.00;;;;;;5029512;28;20858;-69
2021/09/27 10:34:15;;;;;;;58.20;3.10;;;33.10;1.00;;;;;;5029526;28;20540;-69
2021/09/27 10:36:47;;;;;;;57.47;2.33;;;33.10;1.00;;;;;;5028961;28;20513;-69
2021/09/27 10:39:18;;;;;;;57.17;2.00;;;33.00;1.00;;;;;;5029685;28;20461;-69
2021/09/27 10:41:53;;;;;;;57.57;2.30;;;32.90;1.00;;;;;;5029573;28;20540;-69
2021/09/27 10:44:23;;;;;;;57.10;2.00;;;32.60;1.00;;;;;;5029402;28;20535;-69
2021/09/27 10:46:53;;;;;;;57.60;2.20;;;32.60;1.00;;;;;;5028787;28;20548;-69
2021/09/27 10:49:24;;;;;;;58.10;2.60;;;32.90;1.00;;;;;;5029200;28;20485;-69
2021/09/27 10:52:07;;;;;;;57.80;2.17;;;33.20;1.00;;;;;;5029449;28;20456;-69
2021/09/27 10:54:40;;;;;;;57.17;2.20;;;33.70;1.00;;;;;;5029676;28;20451;-69
2021/09/27 10:57:14;;;;;;;57.60;2.10;;;33.80;1.00;;;;;;5041944;27;20470;-69
2021/09/27 10:59:53;;;;;;;57.17;1.90;;;33.10;1.00;;;;;;5048748;28;20444;-69
2021/09/27 11:02:27;;;;;;;57.13;1.80;;;33.10;1.00;;;;;;5049072;27;20954;-69
2021/09/27 11:04:56;;;;;;;57.07;1.80;;;33.60;1.00;;;;;;5049337;28;20444;-69
2021/09/27 11:07:33;;;;;;;57.17;1.80;;;34.20;1.00;;;;;;5048584;28;20466;-69
2021/09/27 11:10:02;;;;;;;57.30;2.00;;;34.90;1.00;;;;;;5048749;28;20570;-69
2021/09/27 11:12:33;;;;;;;57.13;1.90;;;35.60;1.00;;;;;;5048625;28;20539;-69
2021/09/27 11:15:04;;;;;;;57.00;2.23;;;36.20;1.00;;;;;;5049147;28;20483;-69
2021/09/27 11:17:42;;;;;;;56.90;2.00;;;35.90;1.00;;;;;;5048364;28;20476;-69
2021/09/27 11:20:56;;;;;;;57.03;2.27;;;35.70;1.00;;;;;;5049072;28;20483;-70
2021/09/27 11:23:27;;;;;;;56.97;2.13;;;35.70;1.00;;;;;;5079203;28;20876;-70
2021/09/27 11:26:30;;;;;;;56.90;2.33;;;35.70;1.00;;;;;;5048429;28;20805;-70
2021/09/27 11:29:17;;;;;;;57.00;2.20;;;36.40;1.00;;;;;;5046846;27;20922;-70
2021/09/27 11:31:44;;;;;;;57.10;2.70;;;36.90;1.00;;;;;;5052648;27;20543;-70
2021/09/27 11:34:41;;;;;;;56.67;1.90;;;37.30;1.00;;;;;;5048598;28;20450;-70
2021/09/27 11:37:26;;;;;;;56.73;2.00;;;37.70;1.00;;;;;;5048153;28;20829;-70
2021/09/27 11:40:08;;;;;;;56.70;1.90;;;37.40;1.00;;;;;;5048882;28;20531;-70
2021/09/27 11:42:50;;;;;;;57.00;2.47;;;37.10;1.00;;;;;;5048511;28;20448;-70
2021/09/27 11:45:39;;;;;;;57.20;2.37;;;37.00;1.00;;;;;;5048560;28;20448;-70
2021/09/27 11:48:12;;;;;;;56.90;2.07;;;37.50;1.00;;;;;;5048394;27;21036;-70
2021/09/27 11:50:54;;;;;;;56.60;1.83;;;37.60;1.00;;;;;;5048771;27;20815;-70
2021/09/27 11:53:34;;;;;;;56.90;2.57;;;37.90;1.00;;;;;;5048530;28;20448;-70
2021/09/27 11:56:08;;;;;;;56.63;2.00;;;37.70;1.00;;;;;;5047821;28;20457;-70
2021/09/27 11:58:43;;;;;;;56.63;1.90;;;37.20;1.00;;;;;;5048127;28;20466;-70
2021/09/27 12:01:14;;;;;;;56.80;1.80;;;36.60;1.00;;;;;;5028164;28;20956;-70
2021/09/27 12:03:50;;;;;;;56.93;1.97;;;35.70;1.00;;;;;;5028476;28;20871;-69
2021/09/27 12:06:21;;;;;;;57.50;2.23;;;34.70;1.00;;;;;;5028101;28;20806;-70
2021/09/27 12:08:55;;;;;;;57.87;2.10;;;33.30;1.00;;;;;;5028465;28;20579;-69
2021/09/27 12:11:22;;;;;;;57.80;2.10;;;31.90;1.00;;;;;;5028917;28;21075;-69
2021/09/27 12:13:55;;;;;;;57.70;2.50;;;30.90;1.00;;;;;;5031724;28;20827;-69
2021/09/27 12:16:25;;;;;;;57.80;2.57;;;30.10;1.00;;;;;;5031300;28;20452;-69
2021/09/27 12:18:58;;;;;;;57.87;2.40;;;29.60;1.00;;;;;;5031637;28;20467;-69
2021/09/27 12:21:29;;;;;;;57.47;2.00;;;29.20;1.00;;;;;;5032178;28;20539;-69
2021/09/27 12:24:06;;;;;;;58.17;2.40;;;29.00;1.00;;;;;;5031822;28;20451;-69
2021/09/27 12:26:39;;;;;;;57.77;2.20;;;28.80;1.00;;;;;;5031163;28;21000;-67
2021/09/27 12:29:12;;;;;;;57.73;2.40;;;29.20;1.00;;;;;;5031592;28;20985;-70
2021/09/27 12:31:44;;;;;;;58.40;2.63;;;29.50;1.00;;;;;;5044314;27;20468;-70
2021/09/27 12:34:14;;;;;;;57.47;2.20;;;29.40;1.00;;;;;;5051323;28;20963;-67
2021/09/27 12:36:42;;;;;;;57.77;2.40;;;29.40;1.00;;;;;;5051074;28;20535;-67
2021/09/27 12:39:10;;;;;;;57.50;2.20;;;29.20;1.00;;;;;;5051293;28;20444;-68
2021/09/27 12:41:39;;;;;;;57.57;2.10;;;28.90;1.00;;;;;;5051616;28;20535;-68
2021/09/27 12:44:11;;;;;;;57.90;2.10;;;28.70;1.00;;;;;;5051436;28;20458;-68
2021/09/27 12:46:40;;;;;;;58.00;2.47;;;28.60;1.00;;;;;;5051355;28;20806;-68
2021/09/27 12:49:09;;;;;;;58.00;2.30;;;28.40;1.00;;;;;;5051287;28;20488;-68
2021/09/27 12:51:40;;;;;;;57.80;2.07;;;28.20;1.00;;;;;;5051421;27;20480;-68
2021/09/27 12:54:17;;;;;;;57.77;2.30;;;27.90;1.00;;;;;;5051119;28;20440;-68
2021/09/27 12:56:44;;;;;;;57.80;2.10;;;27.80;1.00;;;;;;5050827;28;20640;-68
2021/09/27 12:59:18;;;;;;;58.50;2.63;;;27.60;1.00;;;;;;5051001;28;20539;-69
2021/09/27 13:01:47;;;;;;;58.30;2.37;;;27.30;1.00;;;;;;5051568;27;20448;-69
2021/09/27 13:04:21;;;;;;;57.97;2.30;;;27.10;1.00;;;;;;5154999;27;20435;-69
2021/09/27 13:06:52;;;;;;;58.27;2.60;;;26.70;1.00;;;;;;5155347;27;20448;-69
2021/09/27 13:09:23;;;;;;;58.03;2.77;;;26.40;1.00;;;;;;5155984;27;20573;-69
2021/09/27 13:12:08;;;;;;;57.93;2.70;;;26.10;1.00;;;;;;5156176;27;20446;-69
2021/09/27 13:14:39;;;;;;;58.23;2.47;;;25.70;1.00;;;;;;5155767;27;20532;-69
2021/09/27 13:17:15;;;;;;;58.07;2.50;;;25.40;1.00;;;;;;5146956;27;20497;-69
2021/09/27 13:19:45;;;;;;;58.00;2.40;;;25.20;1.00;;;;;;5128218;27;20448;-70